Time;durP1;ratioP1;P1;durP2;ratioP2;P2;SDS_P1;SDS_P2;PMS_P1;PMS_P2;Temp;Humidity;BMP_temperature;BMP_pressure;BME280_temperature;BME280_humidity;BME280_pressure;Samples;Min_cycle;Max_cycle;Signal;HPM_P1;HPM_P2
2022/10/30 00:01:17;;;;;;;;;;;;;;;9.74;57.70;100511.53;4934340;29;20401;-84
2022/10/30 00:03:43;;;;;;;;;;;;;;;9.76;57.60;100506.28;4936327;29;20323;-85
2022/10/30 00:06:08;;;;;;;;;;;;;;;9.55;58.30;100517.69;4949091;29;19918;-85
2022/10/30 00:08:33;;;;;;;;;;;;;;;9.59;57.77;100509.78;4938585;29;19926;-85
2022/10/30 00:11:06;;;;;;;;;;;;;;;9.48;57.33;100508.84;4932561;29;19919;-85
2022/10/30 00:13:31;;;;;;;;;;;;;;;9.35;58.08;100515.84;4931683;29;19918;-85
2022/10/30 00:15:56;;;;;;;;;;;;;;;9.26;58.53;100515.81;4932137;29;19937;-85
2022/10/30 00:18:22;;;;;;;;;;;;;;;9.25;58.29;100507.06;4932309;29;19914;-85
2022/10/30 00:20:47;;;;;;;;;;;;;;;9.16;58.60;100508.75;4914911;29;19915;-85
2022/10/30 00:23:13;;;;;;;;;;;;;;;9.25;58.50;100511.41;4931928;29;19926;-85
2022/10/30 00:25:38;;;;;;;;;;;;;;;9.25;58.21;100493.91;4931789;29;20419;-86
2022/10/30 00:28:04;;;;;;;;;;;;;;;9.27;58.17;100499.16;4931862;29;19914;-84
2022/10/30 00:30:30;;;;;;;;;;;;;;;9.31;58.43;100493.91;4914260;29;20414;-85
2022/10/30 00:32:55;;;;;;;;;;;;;;;9.18;58.22;100488.59;4931965;29;19953;-85
2022/10/30 00:35:21;;;;;;;;;;;;;;;9.19;58.36;100492.97;4914212;29;20406;-85
2022/10/30 00:37:46;;;;;;;;;;;;;;;8.60;59.81;100484.81;4931303;29;19930;-84
2022/10/30 00:40:15;;;;;;;;;;;;;;;8.41;61.72;100484.66;4932196;29;19915;-84
2022/10/30 00:42:40;;;;;;;;;;;;;;;8.59;61.20;100477.81;4931844;29;19968;-84
2022/10/30 00:45:06;;;;;;;;;;;;;;;8.54;61.52;100488.31;4931457;29;20441;-86
2022/10/30 00:47:33;;;;;;;;;;;;;;;8.68;61.79;100475.25;4931287;29;20000;-86
2022/10/30 00:50:04;;;;;;;;;;;;;;;8.54;62.32;100479.53;4931982;29;19938;-87
2022/10/30 00:52:33;;;;;;;;;;;;;;;8.60;62.36;100469.03;4931315;29;20392;-89
2022/10/30 00:55:01;;;;;;;;;;;;;;;8.56;62.26;100476.03;4931372;29;19919;-85
2022/10/30 00:57:26;;;;;;;;;;;;;;;8.66;62.46;100471.69;4913755;29;20404;-86
2022/10/30 00:59:51;;;;;;;;;;;;;;;8.74;62.56;100469.09;4914588;29;20010;-86
2022/10/30 01:02:18;;;;;;;;;;;;;;;8.92;61.70;100460.44;4931222;29;20013;-87
2022/10/30 01:04:44;;;;;;;;;;;;;;;9.01;61.05;100460.47;4931165;29;19922;-85
2022/10/30 01:07:13;;;;;;;;;;;;;;;8.98;60.73;100460.44;4931000;29;19980;-84
2022/10/30 01:09:39;;;;;;;;;;;;;;;8.87;61.41;100464.81;4930807;29;20515;-84
2022/10/30 01:12:04;;;;;;;;;;;;;;;8.73;61.21;100465.59;4930744;29;19919;-85
2022/10/30 01:14:30;;;;;;;;;;;;;;;8.96;60.28;100462.22;4913992;29;19911;-86
2022/10/30 01:17:05;;;;;;;;;;;;;;;9.06;60.26;100457.84;4930887;29;20314;-84
2022/10/30 01:19:48;;;;;;;;;;;;;;;9.07;60.26;100451.72;4930830;29;20005;-85
2022/10/30 01:22:29;;;;;;;;;;;;;;;8.99;60.54;100454.31;4930565;29;19915;-85
2022/10/30 01:25:26;;;;;;;;;;;;;;;9.00;60.39;100452.56;4931180;29;19918;-85
2022/10/30 01:28:11;;;;;;;;;;;;;;;9.03;60.44;100445.53;4898664;29;19918;-85
2022/10/30 01:30:37;;;;;;;;;;;;;;;9.16;59.99;100438.59;4930985;29;19969;-85
2022/10/30 01:33:15;;;;;;;;;;;;;;;9.19;60.40;100443.84;4914137;29;19923;-85
2022/10/30 01:35:52;;;;;;;;;;;;;;;8.91;60.13;100448.13;4930755;29;20030;-85
2022/10/30 01:38:17;;;;;;;;;;;;;;;9.20;60.44;100445.59;4930403;29;19973;-84
2022/10/30 01:40:44;;;;;;;;;;;;;;;9.14;60.04;100448.22;4931014;29;20378;-85
2022/10/30 01:43:09;;;;;;;;;;;;;;;9.18;60.15;100451.75;4930583;29;20405;-85
2022/10/30 01:45:35;;;;;;;;;;;;;;;9.24;60.34;100446.50;4930300;29;19919;-84
2022/10/30 01:48:23;;;;;;;;;;;;;;;9.18;60.44;100450.00;4930839;29;19922;-85
2022/10/30 01:51:00;;;;;;;;;;;;;;;9.22;60.25;100445.59;4903141;29;20286;-85
2022/10/30 01:53:29;;;;;;;;;;;;;;;9.12;59.67;100442.94;4932762;29;19961;-86
2022/10/30 01:56:10;;;;;;;;;;;;;;;9.03;59.88;100442.91;4915128;29;20709;-85
2022/10/30 01:58:41;;;;;;;;;;;;;;;9.02;60.76;100438.53;4931794;29;19922;-85
2022/10/30 02:01:06;;;;;;;;;;;;;;;8.87;60.35;100434.09;4930164;29;20317;-86
2022/10/30 02:03:32;;;;;;;;;;;;;;;9.04;60.74;100433.28;4931646;29;19919;-84
2022/10/30 02:05:57;;;;;;;;;;;;;;;9.10;59.72;100421.00;4931701;29;19921;-84
2022/10/30 02:08:22;;;;;;;;;;;;;;;9.16;59.10;100417.53;4914457;29;19922;-84
2022/10/30 02:10:49;;;;;;;;;;;;;;;9.02;59.75;100422.75;4931037;29;20037;-86
2022/10/30 02:13:15;;;;;;;;;;;;;;;8.86;60.17;100415.66;4930190;29;19918;-87
2022/10/30 02:15:42;;;;;;;;;;;;;;;8.72;59.95;100419.13;4913324;29;19919;-86
2022/10/30 02:18:08;;;;;;;;;;;;;;;8.81;60.09;100404.25;4929947;29;19925;-86
2022/10/30 02:20:33;;;;;;;;;;;;;;;8.67;60.52;100410.34;4913325;29;19919;-85
2022/10/30 02:22:59;;;;;;;;;;;;;;;8.60;60.14;100404.19;4929597;29;19919;-85
2022/10/30 02:25:24;;;;;;;;;;;;;;;8.62;61.36;100405.91;4930340;29;19918;-85
2022/10/30 02:27:50;;;;;;;;;;;;;;;8.72;60.66;100410.34;4929740;29;19919;-84
2022/10/30 02:30:15;;;;;;;;;;;;;;;8.68;61.38;100411.22;4929867;29;20013;-87
2022/10/30 02:32:40;;;;;;;;;;;;;;;8.77;60.94;100413.88;4929858;29;19919;-84
2022/10/30 02:35:06;;;;;;;;;;;;;;;8.89;59.38;100411.28;4930083;29;19925;-85
2022/10/30 02:37:31;;;;;;;;;;;;;;;8.49;60.05;100410.25;4929387;29;19919;-85
2022/10/30 02:39:57;;;;;;;;;;;;;;;8.44;60.75;100404.09;4929715;29;19977;-86
2022/10/30 02:42:22;;;;;;;;;;;;;;;8.40;61.02;100411.03;4929915;29;20005;-86
2022/10/30 02:44:47;;;;;;;;;;;;;;;8.49;60.57;100413.75;4929541;29;19915;-85
2022/10/30 02:47:13;;;;;;;;;;;;;;;8.41;60.26;100413.69;4930278;29;20591;-86
2022/10/30 02:49:38;;;;;;;;;;;;;;;8.23;61.01;100400.44;4930008;29;20377;-88
2022/10/30 02:52:05;;;;;;;;;;;;;;;8.28;61.02;100416.22;4929945;29;19919;-85
2022/10/30 02:54:30;;;;;;;;;;;;;;;8.27;60.95;100406.59;4929993;29;19958;-87
2022/10/30 02:56:56;;;;;;;;;;;;;;;8.22;61.53;100414.47;4930163;29;20479;-86
2022/10/30 02:59:21;;;;;;;;;;;;;;;8.11;61.41;100408.25;4933731;29;19919;-86
2022/10/30 03:01:46;;;;;;;;;;;;;;;8.10;61.77;100401.25;4933245;29;19922;-86
2022/10/30 03:04:11;;;;;;;;;;;;;;;8.17;61.31;100408.28;4933905;29;20309;-87
2022/10/30 03:06:37;;;;;;;;;;;;;;;8.19;62.22;100407.44;4933413;29;19926;-86
2022/10/30 03:09:02;;;;;;;;;;;;;;;8.03;62.52;100408.19;4933500;29;19962;-85
2022/10/30 03:11:27;;;;;;;;;;;;;;;7.67;64.19;100407.94;4933627;29;19989;-85
2022/10/30 03:13:53;;;;;;;;;;;;;;;7.89;63.47;100408.09;4932573;29;19954;-86
2022/10/30 03:16:20;;;;;;;;;;;;;;;8.06;63.16;100403.84;4933521;29;19961;-86
2022/10/30 03:18:46;;;;;;;;;;;;;;;7.79;62.74;100404.53;4933351;29;19977;-86
2022/10/30 03:21:12;;;;;;;;;;;;;;;7.82;63.03;100406.31;4933010;29;19915;-86
2022/10/30 03:23:38;;;;;;;;;;;;;;;7.87;62.84;100410.72;4933526;29;19986;-85
2022/10/30 03:26:03;;;;;;;;;;;;;;;7.97;62.01;100410.78;4916031;29;19918;-87
2022/10/30 03:28:29;;;;;;;;;;;;;;;7.86;61.67;100411.59;4933277;29;20034;-86
2022/10/30 03:31:08;;;;;;;;;;;;;;;7.97;61.16;100413.41;4933994;29;19919;-87
2022/10/30 03:33:34;;;;;;;;;;;;;;;7.91;59.19;100416.88;4919070;29;20322;-88
2022/10/30 03:35:59;;;;;;;;;;;;;;;7.53;59.81;100418.31;4919980;29;19978;-88
2022/10/30 03:38:25;;;;;;;;;;;;;;;7.53;60.28;100413.06;4934377;29;19919;-88
2022/10/30 03:40:50;;;;;;;;;;;;;;;7.59;60.49;100414.00;4954699;28;19999;-89
2022/10/30 03:43:16;;;;;;;;;;;;;;;7.57;60.06;100411.38;4955980;28;19930;-86
2022/10/30 03:45:45;;;;;;;;;;;;;;;7.58;60.97;100423.59;4915825;29;19926;-87
2022/10/30 03:48:10;;;;;;;;;;;;;;;7.64;61.76;100421.03;4916104;29;20042;-85
2022/10/30 03:50:36;;;;;;;;;;;;;;;7.66;61.26;100423.66;4915513;29;20564;-86
2022/10/30 03:53:02;;;;;;;;;;;;;;;7.61;61.61;100426.25;4931689;29;20398;-84
2022/10/30 03:55:27;;;;;;;;;;;;;;;7.50;62.54;100422.66;4932669;29;19922;-85
2022/10/30 03:57:53;;;;;;;;;;;;;;;7.63;62.14;100421.03;4915126;29;20725;-85
2022/10/30 04:00:19;;;;;;;;;;;;;;;7.70;61.81;100417.59;4932131;29;20385;-86
2022/10/30 04:02:46;;;;;;;;;;;;;;;7.69;61.27;100419.34;4932078;29;19919;-85
2022/10/30 04:05:13;;;;;;;;;;;;;;;7.63;61.85;100419.28;4932107;29;20375;-85
2022/10/30 04:07:38;;;;;;;;;;;;;;;7.59;62.26;100416.63;4931980;29;20313;-86
2022/10/30 04:10:03;;;;;;;;;;;;;;;7.51;62.50;100421.81;4932153;29;19924;-85
2022/10/30 04:12:30;;;;;;;;;;;;;;;7.46;61.62;100418.25;4915364;29;19935;-86
2022/10/30 04:14:55;;;;;;;;;;;;;;;7.20;61.55;100421.50;4931853;29;19969;-85
2022/10/30 04:17:21;;;;;;;;;;;;;;;7.37;61.04;100429.56;4931914;29;20369;-85
2022/10/30 04:19:46;;;;;;;;;;;;;;;7.13;62.11;100424.94;4931892;29;20433;-85
2022/10/30 04:22:13;;;;;;;;;;;;;;;7.07;62.92;100437.97;4914817;29;20457;-85
2022/10/30 04:24:38;;;;;;;;;;;;;;;7.17;62.59;100429.34;4931958;29;19918;-86
2022/10/30 04:27:04;;;;;;;;;;;;;;;7.18;62.90;100433.72;4932112;29;20516;-86
2022/10/30 04:29:29;;;;;;;;;;;;;;;7.15;63.29;100426.72;4914755;29;20029;-85
2022/10/30 04:31:54;;;;;;;;;;;;;;;7.22;63.08;100425.03;4931849;29;19919;-87
2022/10/30 04:34:20;;;;;;;;;;;;;;;7.29;63.18;100420.72;4931687;29;19915;-87
2022/10/30 04:36:45;;;;;;;;;;;;;;;7.35;62.74;100416.41;4931763;29;19915;-85
2022/10/30 04:39:10;;;;;;;;;;;;;;;7.27;62.50;100423.31;4931277;29;20403;-85
2022/10/30 04:41:36;;;;;;;;;;;;;;;7.17;63.24;100421.47;4931895;29;20543;-85
2022/10/30 04:44:01;;;;;;;;;;;;;;;7.16;63.53;100423.19;4931147;29;20393;-85
2022/10/30 04:46:26;;;;;;;;;;;;;;;7.35;63.58;100423.38;4931479;29;20010;-85
2022/10/30 04:48:52;;;;;;;;;;;;;;;7.40;63.38;100426.06;4931285;29;19999;-85
2022/10/30 04:51:17;;;;;;;;;;;;;;;7.39;63.61;100422.56;4931781;29;19926;-88
2022/10/30 04:53:42;;;;;;;;;;;;;;;7.41;62.49;100426.06;4914526;29;20329;-86
2022/10/30 04:56:07;;;;;;;;;;;;;;;7.19;62.24;100432.88;4931298;29;19918;-86
2022/10/30 04:58:34;;;;;;;;;;;;;;;6.91;62.77;100429.94;4931028;29;19918;-85
2022/10/30 05:01:01;;;;;;;;;;;;;;;6.93;63.35;100441.31;4914208;29;19914;-88
2022/10/30 05:03:26;;;;;;;;;;;;;;;6.90;63.54;100440.41;4931460;29;20413;-86
2022/10/30 05:06:14;;;;;;;;;;;;;;;7.04;63.48;100440.56;4931293;29;19950;-86
2022/10/30 05:08:40;;;;;;;;;;;;;;;7.20;63.03;100445.13;4931231;29;19911;-87
2022/10/30 05:11:05;;;;;;;;;;;;;;;7.28;63.12;100439.97;4931159;29;19926;-87
2022/10/30 05:13:30;;;;;;;;;;;;;;;7.21;63.12;100441.63;4932112;29;19915;-88
2022/10/30 05:15:56;;;;;;;;;;;;;;;7.26;63.33;100444.28;4913962;29;19998;-86
2022/10/30 05:18:22;;;;;;;;;;;;;;;7.26;63.50;100442.56;4931412;29;20021;-86
2022/10/30 05:20:48;;;;;;;;;;;;;;;7.37;63.96;100434.81;4913352;29;19919;-86
2022/10/30 05:23:13;;;;;;;;;;;;;;;7.41;64.00;100431.31;4930952;29;19919;-87
2022/10/30 05:25:39;;;;;;;;;;;;;;;7.58;63.52;100439.34;4931020;29;19934;-87
2022/10/30 05:28:05;;;;;;;;;;;;;;;7.61;63.83;100431.50;4931332;29;19919;-87
2022/10/30 05:30:32;;;;;;;;;;;;;;;7.71;63.10;100437.75;4930673;29;19919;-88
2022/10/30 05:33:02;;;;;;;;;;;;;;;7.81;62.87;100436.06;4913704;29;19950;-86
2022/10/30 05:35:27;;;;;;;;;;;;;;;7.68;63.11;100441.22;4913664;29;19930;-85
2022/10/30 05:37:53;;;;;;;;;;;;;;;7.81;63.06;100438.69;4930432;29;19919;-85
2022/10/30 05:40:18;;;;;;;;;;;;;;;7.91;63.77;100437.91;4930457;29;20001;-85
2022/10/30 05:42:44;;;;;;;;;;;;;;;8.12;63.46;100446.81;4930408;29;20394;-86
2022/10/30 05:45:09;;;;;;;;;;;;;;;8.23;62.93;100443.38;4913348;29;20605;-86
2022/10/30 05:47:35;;;;;;;;;;;;;;;8.44;63.24;100438.28;4930903;29;19919;-87
2022/10/30 05:50:00;;;;;;;;;;;;;;;8.60;63.09;100440.09;4930818;29;20316;-86
2022/10/30 05:52:25;;;;;;;;;;;;;;;8.82;62.48;100433.22;4930789;29;19922;-87
2022/10/30 05:54:51;;;;;;;;;;;;;;;9.06;62.66;100432.41;4930852;29;19922;-85
2022/10/30 05:57:17;;;;;;;;;;;;;;;9.00;61.35;100442.03;4929944;29;20373;-87
2022/10/30 05:59:43;;;;;;;;;;;;;;;9.10;62.29;100446.47;4930264;29;19922;-86
2022/10/30 06:02:08;;;;;;;;;;;;;;;9.32;61.28;100447.38;4930899;29;20417;-87
2022/10/30 06:04:33;;;;;;;;;;;;;;;9.30;61.99;100449.16;4930278;29;19918;-86
2022/10/30 06:06:59;;;;;;;;;;;;;;;9.39;61.46;100443.91;4930082;29;19914;-87
2022/10/30 06:09:24;;;;;;;;;;;;;;;9.67;61.33;100441.31;4930302;29;19918;-85
2022/10/30 06:11:49;;;;;;;;;;;;;;;9.97;60.54;100431.63;4913647;29;19918;-85
2022/10/30 06:14:14;;;;;;;;;;;;;;;10.09;60.08;100438.66;4930100;29;20425;-85
2022/10/30 06:16:40;;;;;;;;;;;;;;;10.21;59.92;100434.22;4920883;29;19927;-85
2022/10/30 06:19:05;;;;;;;;;;;;;;;10.48;58.89;100436.84;4911465;29;20445;-84
2022/10/30 06:21:30;;;;;;;;;;;;;;;10.88;57.88;100437.56;4911019;29;19915;-86
2022/10/30 06:23:57;;;;;;;;;;;;;;;10.73;57.25;100437.63;4911144;29;19950;-86
2022/10/30 06:26:23;;;;;;;;;;;;;;;10.73;57.01;100437.63;4911729;29;19918;-88
2022/10/30 06:28:48;;;;;;;;;;;;;;;11.00;56.87;100434.00;4911118;29;19971;-86
2022/10/30 06:31:13;;;;;;;;;;;;;;;11.01;56.40;100442.78;4910961;29;19926;-86
2022/10/30 06:33:38;;;;;;;;;;;;;;;11.36;56.00;100429.38;4914940;29;19919;-85
2022/10/30 06:36:04;;;;;;;;;;;;;;;11.62;55.89;100430.97;4914902;29;19915;-85
2022/10/30 06:38:30;;;;;;;;;;;;;;;11.76;54.51;100429.09;4915106;29;20298;-86
2022/10/30 06:40:56;;;;;;;;;;;;;;;11.80;55.06;100433.47;4915001;29;19919;-86
2022/10/30 06:43:21;;;;;;;;;;;;;;;12.13;53.96;100430.59;4898136;29;19915;-86
2022/10/30 06:45:46;;;;;;;;;;;;;;;12.51;53.67;100429.28;4915269;29;19919;-86
2022/10/30 06:48:12;;;;;;;;;;;;;;;12.60;52.31;100418.59;4934385;29;19978;-85
2022/10/30 06:50:37;;;;;;;;;;;;;;;13.11;51.38;100417.06;4933943;29;20362;-85
2022/10/30 06:53:04;;;;;;;;;;;;;;;13.46;50.88;100418.38;4933895;29;20449;-84
2022/10/30 06:55:29;;;;;;;;;;;;;;;13.54;52.14;100412.03;4934156;29;20010;-84
2022/10/30 06:57:55;;;;;;;;;;;;;;;13.72;49.88;100410.00;4915772;29;20005;-84
2022/10/30 07:00:21;;;;;;;;;;;;;;;14.06;48.66;100412.09;4916186;29;20317;-83
2022/10/30 07:02:59;;;;;;;;;;;;;;;14.03;47.67;100412.16;4933987;29;19918;-84
2022/10/30 07:05:25;;;;;;;;;;;;;;;13.96;47.90;100412.25;4933752;29;19918;-83
2022/10/30 07:07:50;;;;;;;;;;;;;;;14.26;47.82;100417.03;4934160;29;19965;-84
2022/10/30 07:10:15;;;;;;;;;;;;;;;14.26;47.68;100414.38;4933291;29;20408;-86
2022/10/30 07:12:41;;;;;;;;;;;;;;;14.75;47.88;100413.44;4916973;29;20389;-86
2022/10/30 07:15:06;;;;;;;;;;;;;;;14.86;47.95;100410.56;4936481;29;19921;-86
2022/10/30 07:17:32;;;;;;;;;;;;;;;14.89;47.13;100412.25;4935019;29;19931;-85
2022/10/30 07:19:57;;;;;;;;;;;;;;;15.07;47.12;100393.25;4935142;29;19926;-87
2022/10/30 07:22:22;;;;;;;;;;;;;;;15.31;45.70;100391.84;4950599;29;19923;-87
2022/10/30 07:24:48;;;;;;;;;;;;;;;15.48;45.57;100382.59;4950775;29;19919;-88
2022/10/30 07:27:13;;;;;;;;;;;;;;;15.44;45.51;100386.22;4946548;29;19918;-87
2022/10/30 07:29:38;;;;;;;;;;;;;;;15.24;46.40;100384.03;4940180;29;20381;-87
2022/10/30 07:32:04;;;;;;;;;;;;;;;15.58;45.34;100379.66;4932837;29;19919;-87
2022/10/30 07:34:30;;;;;;;;;;;;;;;15.38;45.82;100381.91;4915777;29;19918;-88
2022/10/30 07:36:55;;;;;;;;;;;;;;;15.46;45.39;100379.97;4933077;29;19948;-87
2022/10/30 07:39:20;;;;;;;;;;;;;;;15.62;45.68;100376.94;4933216;29;19918;-86
2022/10/30 07:41:47;;;;;;;;;;;;;;;15.91;44.86;100377.09;4932567;29;20785;-87
2022/10/30 07:44:12;;;;;;;;;;;;;;;16.05;44.82;100378.50;4931858;29;19918;-87
2022/10/30 07:46:37;;;;;;;;;;;;;;;16.32;44.11;100376.00;4932681;29;19923;-87
2022/10/30 07:49:03;;;;;;;;;;;;;;;16.48;43.98;100366.66;4932860;29;19918;-87
2022/10/30 07:51:28;;;;;;;;;;;;;;;16.65;44.59;100364.41;4933207;29;19915;-87
2022/10/30 07:53:53;;;;;;;;;;;;;;;17.10;43.29;100362.19;4915908;29;20305;-88
2022/10/30 07:56:19;;;;;;;;;;;;;;;16.72;42.91;100361.53;4933374;29;19919;-87
2022/10/30 07:58:44;;;;;;;;;;;;;;;16.51;42.50;100355.91;4933948;29;19919;-87
2022/10/30 08:01:09;;;;;;;;;;;;;;;16.82;41.61;100355.91;4933998;29;19942;-86
2022/10/30 08:03:34;;;;;;;;;;;;;;;17.07;41.99;100349.84;4935359;29;20077;-87
2022/10/30 08:06:00;;;;;;;;;;;;;;;17.33;41.05;100349.00;4936993;29;19918;-87
2022/10/30 08:08:25;;;;;;;;;;;;;;;16.78;42.73;100348.91;4936310;29;19915;-87
2022/10/30 08:10:50;;;;;;;;;;;;;;;17.27;40.55;100341.22;4918462;29;19980;-87
2022/10/30 08:13:17;;;;;;;;;;;;;;;17.20;41.40;100339.66;4934438;29;19950;-88
2022/10/30 08:15:42;;;;;;;;;;;;;;;17.74;40.47;100337.00;4932719;29;20393;-87
2022/10/30 08:18:07;;;;;;;;;;;;;;;17.56;40.73;100333.16;4949189;29;19911;-87
2022/10/30 08:20:33;;;;;;;;;;;;;;;17.51;39.91;100328.84;4954517;29;19942;-89
2022/10/30 08:22:58;;;;;;;;;;;;;;;17.90;40.54;100324.88;4939414;29;19915;-85
2022/10/30 08:25:25;;;;;;;;;;;;;;;17.45;40.27;100328.19;4954029;29;19996;-89
2022/10/30 08:27:51;;;;;;;;;;;;;;;17.63;40.46;100329.38;4939489;29;19922;-88
2022/10/30 08:30:16;;;;;;;;;;;;;;;17.83;40.53;100329.53;4917219;29;19918;-88
2022/10/30 08:32:41;;;;;;;;;;;;;;;17.83;40.13;100318.88;4932407;29;19910;-88
2022/10/30 08:35:07;;;;;;;;;;;;;;;18.01;41.28;100322.72;4932298;29;20304;-87
2022/10/30 08:37:32;;;;;;;;;;;;;;;17.95;39.52;100320.28;4932083;29;19915;-87
2022/10/30 08:39:57;;;;;;;;;;;;;;;18.00;40.08;100314.78;4931177;29;20471;-88
2022/10/30 08:42:23;;;;;;;;;;;;;;;18.34;39.25;100314.41;4914500;29;19925;-87
2022/10/30 08:44:48;;;;;;;;;;;;;;;18.13;39.45;100312.53;4914480;29;19989;-88
2022/10/30 08:47:13;;;;;;;;;;;;;;;18.58;38.93;100306.38;4931225;29;19930;-87
2022/10/30 08:49:38;;;;;;;;;;;;;;;18.25;38.15;100317.41;4931313;29;20033;-87
2022/10/30 08:52:07;;;;;;;;;;;;;;;18.38;38.28;100308.03;4931706;29;19940;-87
2022/10/30 08:54:32;;;;;;;;;;;;;;;18.22;38.42;100305.03;4930864;29;19918;-88
2022/10/30 08:56:58;;;;;;;;;;;;;;;18.28;38.93;100300.41;4930909;29;20393;-88
2022/10/30 08:59:23;;;;;;;;;;;;;;;18.35;38.56;100296.56;4931713;29;19921;-87
2022/10/30 09:01:49;;;;;;;;;;;;;;;18.37;38.42;100300.94;4931512;29;19957;-87
2022/10/30 09:04:15;;;;;;;;;;;;;;;18.77;38.49;100294.06;4931414;29;19922;-87
2022/10/30 09:06:40;;;;;;;;;;;;;;;19.09;38.23;100288.38;4931266;29;19918;-87
2022/10/30 09:09:06;;;;;;;;;;;;;;;19.06;37.80;100297.41;4930988;29;19918;-87
2022/10/30 09:11:31;;;;;;;;;;;;;;;19.12;37.40;100285.56;4931958;29;20374;-88
2022/10/30 09:13:56;;;;;;;;;;;;;;;19.30;37.14;100289.31;4930997;29;19923;-87
2022/10/30 09:16:22;;;;;;;;;;;;;;;19.13;37.18;100279.31;4930736;29;19918;-87
2022/10/30 09:18:47;;;;;;;;;;;;;;;19.24;37.70;100281.53;4931149;29;19986;-89
2022/10/30 09:21:12;;;;;;;;;;;;;;;19.39;37.63;100272.00;4913799;29;19915;-87
2022/10/30 09:23:37;;;;;;;;;;;;;;;19.45;36.24;100266.41;4930541;29;20001;-88
2022/10/30 09:26:03;;;;;;;;;;;;;;;19.63;36.75;100267.38;4913709;29;20449;-88
2022/10/30 09:28:28;;;;;;;;;;;;;;;19.61;38.05;100255.88;4930444;29;19914;-87
2022/10/30 09:30:55;;;;;;;;;;;;;;;19.68;37.03;100247.53;4930837;29;19918;-87
2022/10/30 09:33:21;;;;;;;;;;;;;;;19.40;36.40;100250.53;4930459;29;20815;-88
2022/10/30 09:35:46;;;;;;;;;;;;;;;19.58;36.29;100250.66;4930695;29;19922;-87
2022/10/30 09:38:12;;;;;;;;;;;;;;;20.04;37.14;100244.16;4931191;29;19958;-86
2022/10/30 09:40:51;;;;;;;;;;;;;;;20.24;36.53;100238.84;4930915;29;19982;-87
2022/10/30 09:43:23;;;;;;;;;;;;;;;20.01;35.96;100233.59;4930809;29;20754;-88
2022/10/30 09:46:00;;;;;;;;;;;;;;;20.42;35.58;100238.00;4930322;29;20389;-88
2022/10/30 09:48:33;;;;;;;;;;;;;;;20.48;34.80;100231.44;4930540;29;19950;-86
2022/10/30 09:50:58;;;;;;;;;;;;;;;20.51;34.77;100229.50;4930620;29;19915;-88
2022/10/30 09:53:33;;;;;;;;;;;;;;;20.37;35.19;100221.25;4930300;29;20349;-88
2022/10/30 09:56:11;;;;;;;;;;;;;;;20.70;35.15;100212.56;4930382;29;19995;-90
2022/10/30 09:59:02;;;;;;;;;;;;;;;20.86;34.36;100210.00;4913238;29;20393;-88
2022/10/30 10:01:37;;;;;;;;;;;;;;;20.66;34.14;100205.63;4926764;29;19926;-88
2022/10/30 10:04:02;;;;;;;;;;;;;;;20.81;34.38;100210.22;4930288;29;19923;-88
2022/10/30 10:06:28;;;;;;;;;;;;;;;20.68;34.38;100204.63;4930534;29;19922;-88
2022/10/30 10:08:57;;;;;;;;;;;;;;;20.88;34.06;100200.94;4930430;29;19925;-87
2022/10/30 10:11:28;;;;;;;;;;;;;;;21.01;34.20;100197.66;4930624;29;19938;-88
2022/10/30 10:14:00;;;;;;;;;;;;;;;21.29;33.73;100192.59;4930228;29;19918;-89
2022/10/30 10:16:28;;;;;;;;;;;;;;;21.39;33.19;100198.34;4930001;29;19919;-88
2022/10/30 10:19:08;;;;;;;;;;;;;;;21.39;33.36;100194.81;4934628;29;19919;-88
2022/10/30 10:21:36;;;;;;;;;;;;;;;21.21;33.60;100189.44;4931686;29;19919;-88
2022/10/30 10:24:03;;;;;;;;;;;;;;;21.40;33.01;100184.00;4915233;29;19918;-87
2022/10/30 10:26:30;;;;;;;;;;;;;;;21.46;32.99;100180.13;4935436;29;20432;-88
2022/10/30 10:29:04;;;;;;;;;;;;;;;21.49;33.13;100177.31;4930560;29;19918;-90
2022/10/30 10:31:29;;;;;;;;;;;;;;;21.50;33.17;100170.97;4932252;29;19918;-87
2022/10/30 10:33:57;;;;;;;;;;;;;;;21.68;33.58;100166.44;4934058;29;19974;-88
2022/10/30 10:36:46;;;;;;;;;;;;;;;21.98;32.97;100150.50;4935294;29;19919;-87
2022/10/30 10:39:43;;;;;;;;;;;;;;;22.05;31.53;100144.78;4929961;29;20433;-89
2022/10/30 10:42:12;;;;;;;;;;;;;;;21.94;32.00;100145.38;4890367;29;19918;-90
2022/10/30 10:44:46;;;;;;;;;;;;;;;22.16;31.74;100131.63;4930494;29;20366;-87
2022/10/30 10:47:29;;;;;;;;;;;;;;;22.09;31.72;100131.09;4913273;29;19923;-87
2022/10/30 10:50:13;;;;;;;;;;;;;;;21.95;31.97;100131.88;4915064;29;19930;-87
2022/10/30 10:52:45;;;;;;;;;;;;;;;22.28;31.45;100119.31;4930711;29;20089;-87
2022/10/30 10:55:17;;;;;;;;;;;;;;;22.41;31.54;100116.81;4932137;29;19926;-88
2022/10/30 10:57:45;;;;;;;;;;;;;;;22.63;31.51;100114.63;4931262;29;19914;-89
2022/10/30 11:00:14;;;;;;;;;;;;;;;22.57;32.01;100114.97;4934484;29;19919;-89
2022/10/30 11:02:41;;;;;;;;;;;;;;;22.54;31.65;100109.78;4940933;29;19942;-89
2022/10/30 11:05:36;;;;;;;;;;;;;;;22.77;30.98;100096.78;4935365;29;19977;-88
2022/10/30 11:08:16;;;;;;;;;;;;;;;22.93;30.83;100088.69;4911206;29;20475;-87
2022/10/30 11:10:41;;;;;;;;;;;;;;;22.79;30.58;100087.69;4929215;29;19987;-90
2022/10/30 11:13:10;;;;;;;;;;;;;;;23.24;30.06;100087.72;4929283;29;19931;-86
2022/10/30 11:15:54;;;;;;;;;;;;;;;23.22;29.84;100074.34;4912260;29;20007;-86
2022/10/30 11:18:19;;;;;;;;;;;;;;;23.37;29.77;100074.34;4929645;29;19919;-85
2022/10/30 11:20:55;;;;;;;;;;;;;;;23.39;29.72;100072.44;4932918;29;20005;-85
2022/10/30 11:23:32;;;;;;;;;;;;;;;23.34;29.24;100058.41;4932996;29;19922;-87
2022/10/30 11:25:57;;;;;;;;;;;;;;;23.53;29.16;100068.91;4932626;29;19929;-87
2022/10/30 11:28:34;;;;;;;;;;;;;;;23.57;30.19;100059.63;4914786;29;19948;-86
2022/10/30 11:31:16;;;;;;;;;;;;;;;23.38;29.61;100054.56;4932274;29;20025;-87
2022/10/30 11:33:41;;;;;;;;;;;;;;;23.46;29.10;100048.69;4932647;29;19914;-87
2022/10/30 11:36:13;;;;;;;;;;;;;;;23.63;28.87;100056.56;4932712;29;20018;-89
2022/10/30 11:38:38;;;;;;;;;;;;;;;23.74;28.63;100050.50;4932592;29;19919;-88
2022/10/30 11:41:04;;;;;;;;;;;;;;;23.72;28.49;100049.72;4932409;29;20262;-87
2022/10/30 11:43:29;;;;;;;;;;;;;;;23.78;28.35;100043.94;4914552;29;19919;-86
2022/10/30 11:45:55;;;;;;;;;;;;;;;23.86;28.87;100038.94;4932459;29;19915;-87
2022/10/30 11:48:22;;;;;;;;;;;;;;;24.05;28.12;100038.63;4915123;29;20010;-87
2022/10/30 11:50:48;;;;;;;;;;;;;;;24.07;27.45;100030.44;4931953;29;19923;-87
2022/10/30 11:53:23;;;;;;;;;;;;;;;23.96;27.97;100025.78;4931820;29;19964;-87
2022/10/30 11:55:48;;;;;;;;;;;;;;;24.02;28.44;100019.97;4931715;29;19930;-87
2022/10/30 11:58:27;;;;;;;;;;;;;;;24.30;27.34;100019.00;4931799;29;19919;-87
2022/10/30 12:01:24;;;;;;;;;;;;;;;24.10;27.59;100020.31;4932114;29;19914;-87
2022/10/30 12:03:50;;;;;;;;;;;;;;;24.31;27.84;100009.06;4899657;29;19914;-89
2022/10/30 12:06:24;;;;;;;;;;;;;;;24.55;26.81;100011.09;4914618;29;19919;-89
2022/10/30 12:09:08;;;;;;;;;;;;;;;24.33;26.68;100007.16;4931879;29;19926;-89
2022/10/30 12:11:34;;;;;;;;;;;;;;;24.43;26.86;100008.25;4931652;29;19919;-86
2022/10/30 12:14:00;;;;;;;;;;;;;;;24.56;26.73;100004.69;4931499;29;19918;-87
2022/10/30 12:16:26;;;;;;;;;;;;;;;24.45;27.18;100006.31;4931589;29;20448;-86
2022/10/30 12:18:58;;;;;;;;;;;;;;;24.52;26.83;100004.06;4931791;29;19926;-85
2022/10/30 12:21:25;;;;;;;;;;;;;;;24.52;26.91;100000.50;4931258;29;19915;-86
2022/10/30 12:23:53;;;;;;;;;;;;;;;24.54;27.53;99998.56;4931922;29;20034;-87
2022/10/30 12:26:19;;;;;;;;;;;;;;;24.49;27.33;99988.09;4931193;29;19915;-86
2022/10/30 12:28:52;;;;;;;;;;;;;;;24.61;26.64;99987.28;4931462;29;19914;-87
2022/10/30 12:31:22;;;;;;;;;;;;;;;24.55;26.23;99990.38;4931661;29;20029;-87
2022/10/30 12:34:06;;;;;;;;;;;;;;;24.81;26.42;99996.69;4931436;29;20009;-87
2022/10/30 12:36:39;;;;;;;;;;;;;;;24.61;26.56;99987.28;4931054;29;19922;-86
2022/10/30 12:39:31;;;;;;;;;;;;;;;24.89;26.10;99979.97;4931634;29;19919;-86
2022/10/30 12:42:00;;;;;;;;;;;;;;;24.84;25.88;99980.28;4908721;29;19938;-86
2022/10/30 12:44:40;;;;;;;;;;;;;;;24.92;26.09;99978.91;4913730;29;20341;-86
2022/10/30 12:47:16;;;;;;;;;;;;;;;25.12;25.60;99974.78;4930999;29;19923;-86